createdAt,value
2018-12-22T00:02:09.800Z,-3.07
2018-12-22T00:04:38.366Z,-3.17
2018-12-22T00:07:07.029Z,-3.11
2018-12-22T00:09:35.621Z,-3.16
2018-12-22T00:12:04.311Z,-3.21
2018-12-22T00:14:32.965Z,-3.12
2018-12-22T00:17:01.563Z,-3.16
2018-12-22T00:19:30.156Z,-3.23
2018-12-22T00:21:58.721Z,-3.27
2018-12-22T00:24:27.326Z,-3.20
2018-12-22T00:26:55.926Z,-3.24
2018-12-22T00:29:24.562Z,-3.06
2018-12-22T00:31:53.167Z,-3.09
2018-12-22T00:34:21.740Z,-2.98
2018-12-22T00:36:50.343Z,-3.09
2018-12-22T00:39:18.952Z,-3.05
2018-12-22T00:41:47.566Z,-3.06
2018-12-22T00:44:16.231Z,-2.96
2018-12-22T00:46:44.845Z,-2.97
2018-12-22T00:49:13.409Z,-2.92
2018-12-22T00:51:41.989Z,-2.88
2018-12-22T00:54:41.668Z,-2.85
2018-12-22T00:57:10.341Z,-2.93
2018-12-22T00:59:38.939Z,-2.94
2018-12-22T01:02:07.550Z,-2.89
2018-12-22T01:04:36.124Z,-2.90
2018-12-22T01:07:04.697Z,-2.88
2018-12-22T01:09:33.320Z,-2.89
2018-12-22T01:12:01.920Z,-2.89
2018-12-22T01:14:30.510Z,-2.91
2018-12-22T01:17:03.241Z,-2.92
2018-12-22T01:19:31.822Z,-2.91
2018-12-22T01:22:00.463Z,-2.86
2018-12-22T01:24:29.104Z,-2.79
2018-12-22T01:26:57.707Z,-2.97
2018-12-22T01:29:26.290Z,-2.89
2018-12-22T01:31:54.839Z,-2.88
2018-12-22T01:34:23.464Z,-3.03
2018-12-22T01:36:52.083Z,-3.06
2018-12-22T01:39:20.643Z,-3.03
2018-12-22T01:41:49.262Z,-3.09
2018-12-22T01:44:17.855Z,-3.16
2018-12-22T01:46:46.434Z,-3.18
2018-12-22T01:49:15.068Z,-3.32
2018-12-22T01:51:43.766Z,-3.28
2018-12-22T01:54:12.418Z,-3.18
2018-12-22T01:56:41.011Z,-3.27
2018-12-22T01:59:09.625Z,-3.38
2018-12-22T02:01:38.227Z,-3.39
2018-12-22T02:04:06.800Z,-3.43
2018-12-22T02:06:36.529Z,-3.33
2018-12-22T02:09:07.206Z,-3.27
2018-12-22T02:11:35.820Z,-3.24
2018-12-22T02:14:04.667Z,-3.24
2018-12-22T02:16:33.345Z,-3.19
2018-12-22T02:19:01.914Z,-3.20
2018-12-22T02:21:30.528Z,-3.12
2018-12-22T02:23:59.105Z,-3.22
2018-12-22T02:26:27.699Z,-3.21
2018-12-22T02:28:56.862Z,-3.31
2018-12-22T02:31:25.671Z,-3.27
2018-12-22T02:33:54.224Z,-3.28
2018-12-22T02:36:22.863Z,-3.38
2018-12-22T02:38:51.416Z,-3.22
2018-12-22T02:41:20.082Z,-3.30
2018-12-22T02:43:48.639Z,-3.25
2018-12-22T02:46:17.202Z,-3.31
2018-12-22T02:48:45.791Z,-3.21
2018-12-22T02:51:14.357Z,-3.18
2018-12-22T02:53:42.920Z,-3.24
2018-12-22T02:56:11.489Z,-3.15
2018-12-22T02:58:40.086Z,-3.12
2018-12-22T03:01:08.676Z,-3.14
2018-12-22T03:03:37.424Z,-3.25
2018-12-22T03:06:05.972Z,-3.17
2018-12-22T03:08:34.528Z,-3.22
2018-12-22T03:11:03.144Z,-3.26
2018-12-22T03:13:31.748Z,-3.21
2018-12-22T03:16:00.410Z,-3.10
2018-12-22T03:18:29.001Z,-2.98
2018-12-22T03:20:57.570Z,-2.91
2018-12-22T03:23:26.206Z,-2.98
2018-12-22T03:25:54.734Z,-2.98
2018-12-22T03:28:23.374Z,-3.02
2018-12-22T03:30:51.961Z,-3.24
2018-12-22T03:33:20.613Z,-3.15
2018-12-22T03:35:49.905Z,-3.09
2018-12-22T03:38:18.520Z,-3.11
2018-12-22T03:40:47.122Z,-3.18
2018-12-22T03:43:15.700Z,-3.11
2018-12-22T03:45:44.255Z,-3.14
2018-12-22T03:48:12.918Z,-3.09
2018-12-22T03:50:41.525Z,-3.09
2018-12-22T03:53:10.107Z,-3.23
2018-12-22T03:55:38.680Z,-3.30
2018-12-22T03:58:07.270Z,-3.26
2018-12-22T04:00:35.852Z,-3.27
2018-12-22T04:03:04.397Z,-3.25
2018-12-22T04:05:33.015Z,-3.25
2018-12-22T04:08:01.607Z,-3.18
2018-12-22T04:10:30.242Z,-3.33
2018-12-22T04:12:58.767Z,-3.31
2018-12-22T04:15:27.428Z,-3.18
2018-12-22T04:17:56.020Z,-3.20
2018-12-22T04:20:24.618Z,-3.38
2018-12-22T04:22:53.159Z,-3.52
2018-12-22T04:25:21.775Z,-3.43
2018-12-22T04:27:50.547Z,-3.61
2018-12-22T04:30:19.233Z,-3.39
2018-12-22T04:32:47.840Z,-3.30
2018-12-22T04:35:16.429Z,-3.30
2018-12-22T04:37:44.973Z,-3.34
2018-12-22T04:40:13.545Z,-3.19
2018-12-22T04:42:42.068Z,-3.29
2018-12-22T04:45:10.647Z,-3.16
2018-12-22T04:47:40.107Z,-3.10
2018-12-22T04:50:08.805Z,-3.06
2018-12-22T04:52:37.404Z,-3.11
2018-12-22T04:55:06.308Z,-3.07
2018-12-22T04:57:34.996Z,-3.07
2018-12-22T05:00:09.810Z,-3.10
2018-12-22T05:02:38.411Z,-3.11
2018-12-22T05:05:07.183Z,-3.24
2018-12-22T05:07:35.776Z,-3.19
2018-12-22T05:10:04.764Z,-3.08
2018-12-22T05:12:33.401Z,-3.15
2018-12-22T05:15:01.990Z,-3.34
2018-12-22T05:17:30.544Z,-3.39
2018-12-22T05:19:59.097Z,-3.50
2018-12-22T05:22:27.912Z,-3.68
2018-12-22T05:24:56.455Z,-3.64
2018-12-22T05:27:25.003Z,-3.57
2018-12-22T05:29:53.571Z,-3.40
2018-12-22T05:32:22.237Z,-3.35
2018-12-22T05:34:50.862Z,-3.49
2018-12-22T05:37:19.481Z,-3.38
2018-12-22T05:39:48.091Z,-3.32
2018-12-22T05:42:16.711Z,-3.43
2018-12-22T05:44:45.280Z,-3.60
2018-12-22T05:47:13.868Z,-3.66
2018-12-22T05:49:42.520Z,-3.49
2018-12-22T05:52:11.112Z,-3.38
2018-12-22T05:54:39.728Z,-3.27
2018-12-22T05:57:08.263Z,-3.49
2018-12-22T05:59:36.826Z,-3.23
2018-12-22T06:02:05.426Z,-3.05
2018-12-22T06:04:34.050Z,-2.96
2018-12-22T06:07:03.105Z,-2.96
2018-12-22T06:09:31.672Z,-2.97
2018-12-22T06:12:00.302Z,-3.03
2018-12-22T06:14:28.865Z,-2.90
2018-12-22T06:16:57.442Z,-2.87
2018-12-22T06:19:26.052Z,-2.96
2018-12-22T06:21:54.655Z,-2.96
2018-12-22T06:24:23.179Z,-2.88
2018-12-22T06:26:51.742Z,-2.98
2018-12-22T06:29:21.378Z,-3.08
2018-12-22T06:31:49.991Z,-3.24
2018-12-22T06:34:18.618Z,-3.22
2018-12-22T06:36:47.545Z,-3.27
2018-12-22T06:39:16.055Z,-3.20
2018-12-22T06:41:44.658Z,-3.35
2018-12-22T06:44:13.768Z,-3.56
2018-12-22T06:46:43.259Z,-3.42
2018-12-22T06:49:13.405Z,-3.38
2018-12-22T06:51:42.124Z,-3.87
2018-12-22T06:54:10.745Z,-4.08
2018-12-22T06:56:39.473Z,-3.91
2018-12-22T06:59:08.115Z,-3.76
2018-12-22T07:01:36.665Z,-3.67
2018-12-22T07:04:05.247Z,-3.59
2018-12-22T07:06:33.832Z,-3.42
2018-12-22T07:09:02.431Z,-3.51
2018-12-22T07:11:30.988Z,-3.65
2018-12-22T07:13:59.653Z,-3.45
2018-12-22T07:16:28.241Z,-3.37
2018-12-22T07:18:56.805Z,-3.15
2018-12-22T07:21:25.579Z,-2.98
2018-12-22T07:23:54.136Z,-2.84
2018-12-22T07:26:22.707Z,-2.68
2018-12-22T07:28:52.784Z,-2.61
2018-12-22T07:31:21.438Z,-2.64
2018-12-22T07:33:50.409Z,-2.66
2018-12-22T07:36:19.413Z,-2.62
2018-12-22T07:38:48.277Z,-2.42
2018-12-22T07:41:18.737Z,-2.27
2018-12-22T07:43:47.529Z,-2.10
2018-12-22T07:46:18.121Z,-2.03
2018-12-22T07:48:47.057Z,-1.92
2018-12-22T07:51:15.862Z,-1.93
2018-12-22T07:53:44.674Z,-1.81
2018-12-22T07:56:13.772Z,-1.78
2018-12-22T07:58:43.662Z,-1.72
2018-12-22T08:01:13.300Z,-1.91
2018-12-22T08:03:42.235Z,-1.80
2018-12-22T08:06:12.058Z,-1.71
2018-12-22T08:08:41.214Z,-1.75
2018-12-22T08:11:09.879Z,-1.90
2018-12-22T08:13:41.141Z,-1.73
2018-12-22T08:16:09.847Z,-1.63
2018-12-22T08:18:39.067Z,-1.45
2018-12-22T08:21:07.779Z,-1.33
2018-12-22T08:23:36.552Z,-1.36
2018-12-22T08:26:05.935Z,-1.27
2018-12-22T08:28:35.407Z,-1.23
2018-12-22T08:31:04.427Z,-1.07
2018-12-22T08:33:33.149Z,-1.04
2018-12-22T08:36:02.209Z,-1.20
2018-12-22T08:38:31.349Z,-1.09
2018-12-22T08:41:00.202Z,-0.96
2018-12-22T08:43:29.790Z,-0.89
2018-12-22T08:45:58.998Z,-0.93
2018-12-22T08:48:27.779Z,-0.61
2018-12-22T08:50:57.529Z,-0.48
2018-12-22T08:53:27.224Z,-0.21
2018-12-22T08:55:56.000Z,-0.03
2018-12-22T08:58:25.727Z,0.10
2018-12-22T09:00:54.478Z,0.01
2018-12-22T09:03:23.138Z,0.21
2018-12-22T09:05:52.407Z,0.22
2018-12-22T09:08:21.316Z,0.25
2018-12-22T09:10:50.182Z,0.22
2018-12-22T09:13:20.984Z,0.21
2018-12-22T09:15:50.103Z,0.40
2018-12-22T09:18:19.171Z,0.55
2018-12-22T09:20:47.933Z,0.67
2018-12-22T09:23:16.847Z,0.96
2018-12-22T09:25:45.475Z,0.94
2018-12-22T09:28:15.056Z,1.23
2018-12-22T09:30:44.023Z,1.43
2018-12-22T09:33:12.967Z,1.59
2018-12-22T09:35:41.612Z,1.85
2018-12-22T09:38:10.483Z,1.90
2018-12-22T09:40:39.456Z,2.18
2018-12-22T09:43:08.474Z,2.43
2018-12-22T09:45:37.149Z,2.58
2018-12-22T09:48:07.319Z,2.65
2018-12-22T09:50:36.983Z,2.43
2018-12-22T09:53:05.671Z,2.69
2018-12-22T09:55:34.972Z,2.60
2018-12-22T09:58:04.529Z,2.78
2018-12-22T10:00:34.857Z,2.88
2018-12-22T10:03:03.837Z,3.16
2018-12-22T10:05:34.691Z,3.47
2018-12-22T10:08:03.353Z,3.47
2018-12-22T10:10:32.214Z,3.60
2018-12-22T10:13:00.999Z,3.65
2018-12-22T10:15:30.316Z,3.54
2018-12-22T10:18:00.017Z,3.95
2018-12-22T10:20:29.102Z,4.11
2018-12-22T10:22:58.032Z,4.18
2018-12-22T10:25:27.388Z,4.19
2018-12-22T10:27:56.537Z,4.05
2018-12-22T10:30:25.366Z,4.12
2018-12-22T10:32:54.500Z,4.19
2018-12-22T10:35:28.887Z,4.06
2018-12-22T10:37:57.891Z,4.05
2018-12-22T10:40:27.465Z,3.97
2018-12-22T10:42:56.398Z,4.16
2018-12-22T10:46:28.486Z,3.87
2018-12-22T10:48:57.240Z,4.21
2018-12-22T10:51:26.135Z,4.29
2018-12-22T10:53:55.036Z,4.34
2018-12-22T10:56:23.820Z,4.58
2018-12-22T10:58:53.067Z,4.67
2018-12-22T11:01:26.398Z,4.93
2018-12-22T11:03:53.604Z,4.92
2018-12-22T11:06:22.211Z,5.18
2018-12-22T11:08:51.512Z,4.69
2018-12-22T11:11:20.692Z,4.82
2018-12-22T11:13:49.521Z,5.03
2018-12-22T11:16:18.690Z,5.11
2018-12-22T11:18:48.549Z,5.35
2018-12-22T11:21:17.158Z,5.40
2018-12-22T11:23:46.430Z,5.17
2018-12-22T11:26:15.692Z,5.45
2018-12-22T11:28:46.339Z,5.51
2018-12-22T11:31:16.072Z,5.46
2018-12-22T11:33:44.737Z,5.53
2018-12-22T11:36:13.347Z,5.64
2018-12-22T11:38:42.269Z,5.49
2018-12-22T11:41:11.183Z,5.52
2018-12-22T11:43:39.883Z,5.80
2018-12-22T11:46:09.229Z,5.98
2018-12-22T11:49:53.544Z,6.20
2018-12-22T11:52:23.133Z,6.30
2018-12-22T11:54:51.869Z,6.21
2018-12-22T11:57:21.425Z,6.24
2018-12-22T11:59:51.064Z,6.31
2018-12-22T12:02:20.031Z,6.32
2018-12-22T12:04:49.021Z,6.02
2018-12-22T12:07:18.355Z,5.60
2018-12-22T12:09:47.566Z,6.07
2018-12-22T12:12:16.360Z,6.17
2018-12-22T12:14:45.776Z,6.07
2018-12-22T12:17:38.243Z,6.38
2018-12-22T12:20:08.558Z,6.54
2018-12-22T12:22:38.620Z,6.47
2018-12-22T12:25:08.094Z,6.56
2018-12-22T12:27:36.674Z,6.83
2018-12-22T12:30:18.041Z,6.82
2018-12-22T12:32:48.578Z,7.10
2018-12-22T12:35:18.302Z,6.91
2018-12-22T12:37:47.063Z,6.93
2018-12-22T12:40:18.480Z,6.95
2018-12-22T12:42:47.307Z,7.10
2018-12-22T12:45:15.938Z,6.93
2018-12-22T12:47:46.064Z,6.63
2018-12-22T12:50:19.312Z,5.77
2018-12-22T12:52:48.215Z,5.82
2018-12-22T12:55:16.892Z,5.80
2018-12-22T12:57:45.723Z,5.65
2018-12-22T13:00:16.207Z,5.62
2018-12-22T13:02:46.536Z,5.59
2018-12-22T13:05:15.274Z,5.35
2018-12-22T13:07:44.405Z,5.28
2018-12-22T13:10:14.878Z,5.21
2018-12-22T14:14:26.906Z,2.75
2018-12-22T14:17:07.044Z,2.74
2018-12-22T14:19:35.939Z,2.87
2018-12-22T14:22:05.398Z,2.85
2018-12-22T14:24:38.317Z,2.82
2018-12-22T14:27:06.954Z,2.99
2018-12-22T14:29:35.616Z,3.08
2018-12-22T14:32:04.307Z,3.02
2018-12-22T14:34:51.641Z,3.06
2018-12-22T14:37:20.251Z,2.91
2018-12-22T14:39:48.810Z,2.90
2018-12-22T14:42:17.441Z,2.74
2018-12-22T14:44:46.048Z,2.78
2018-12-22T14:47:14.593Z,2.76
2018-12-22T14:49:43.175Z,2.86
2018-12-22T14:52:11.724Z,2.70
2018-12-22T14:54:40.301Z,2.55
2018-12-22T14:57:08.913Z,2.56
2018-12-22T14:59:38.538Z,2.34
2018-12-22T15:02:07.896Z,2.28
2018-12-22T15:04:37.066Z,2.15
2018-12-22T15:07:06.834Z,2.16
2018-12-22T15:16:21.958Z,1.85
2018-12-22T15:18:50.571Z,1.74
2018-12-22T15:21:19.177Z,1.75
2018-12-22T15:23:47.831Z,1.69
2018-12-22T15:26:16.414Z,1.67
2018-12-22T15:28:47.302Z,1.84
2018-12-22T15:31:15.666Z,1.79
2018-12-22T15:33:44.276Z,1.78
2018-12-22T15:36:12.932Z,1.71
2018-12-22T15:38:41.518Z,1.76
2018-12-22T15:41:10.815Z,1.66
2018-12-22T15:43:39.473Z,1.70
2018-12-22T15:46:08.406Z,1.71
2018-12-22T15:48:36.995Z,1.69
2018-12-22T15:51:05.620Z,1.78
2018-12-22T15:53:34.370Z,1.71
2018-12-22T15:56:02.940Z,1.75
2018-12-22T15:58:31.541Z,1.92
2018-12-22T16:01:00.128Z,2.05
2018-12-22T16:03:28.723Z,1.98
2018-12-22T16:05:57.319Z,1.82
2018-12-22T16:08:25.900Z,1.79
2018-12-22T16:10:54.462Z,1.67
2018-12-22T16:13:23.048Z,1.57
2018-12-22T16:15:51.596Z,1.64
2018-12-22T16:18:20.259Z,1.65
2018-12-22T16:20:48.872Z,1.61
2018-12-22T16:23:17.507Z,1.63
2018-12-22T16:25:46.109Z,1.67
2018-12-22T16:28:21.752Z,1.68
2018-12-22T16:30:53.429Z,1.70
2018-12-22T16:33:22.109Z,1.69
2018-12-22T16:35:50.821Z,1.71
2018-12-22T16:38:19.638Z,1.75
2018-12-22T16:40:48.728Z,1.73
2018-12-22T16:43:19.953Z,1.77
2018-12-22T16:45:50.782Z,1.71
2018-12-22T16:48:21.783Z,1.71
2018-12-22T16:50:50.452Z,1.65
2018-12-22T16:53:19.053Z,1.73
2018-12-22T16:55:47.695Z,1.75
2018-12-22T16:58:31.203Z,1.56
2018-12-22T17:01:06.801Z,1.53
2018-12-22T17:03:35.664Z,1.62
2018-12-22T17:06:06.491Z,1.57
2018-12-22T17:08:35.215Z,1.66
2018-12-22T17:11:05.383Z,1.55
2018-12-22T17:13:33.983Z,1.46
2018-12-22T17:16:03.204Z,1.42
2018-12-22T17:18:31.809Z,1.45
2018-12-22T17:21:08.846Z,1.43
2018-12-22T17:23:57.223Z,1.17
2018-12-22T17:26:28.568Z,1.10
2018-12-22T17:28:57.187Z,1.03
2018-12-22T17:31:25.891Z,0.89
2018-12-22T17:33:54.490Z,0.88
2018-12-22T17:39:55.972Z,0.88
2018-12-22T17:42:24.769Z,0.83
2018-12-22T17:44:53.359Z,0.91
2018-12-22T17:47:22.000Z,0.81
2018-12-22T17:49:50.568Z,0.86
2018-12-22T17:52:19.160Z,0.76
2018-12-22T17:54:47.774Z,0.73
2018-12-22T17:57:16.668Z,0.72
2018-12-22T17:59:45.381Z,0.76
2018-12-22T18:02:14.067Z,0.70
2018-12-22T18:04:42.718Z,0.79
2018-12-22T18:07:11.370Z,0.72
2018-12-22T18:09:39.972Z,0.61
2018-12-22T18:12:08.640Z,0.73
2018-12-22T18:14:37.258Z,0.69
2018-12-22T18:17:05.896Z,0.70
2018-12-22T18:19:34.598Z,0.63
2018-12-22T18:22:03.280Z,0.62
2018-12-22T18:24:31.953Z,0.58
2018-12-22T18:27:00.601Z,0.63
2018-12-22T18:29:29.170Z,0.67
2018-12-22T18:31:57.775Z,0.36
2018-12-22T18:34:26.427Z,0.15
2018-12-22T18:36:54.994Z,0.32
2018-12-22T18:39:23.623Z,0.43
2018-12-22T18:41:52.224Z,0.42
2018-12-22T18:44:20.834Z,0.35
2018-12-22T18:46:49.502Z,0.46
2018-12-22T18:49:18.121Z,0.57
2018-12-22T18:51:46.790Z,0.62
2018-12-22T18:54:15.627Z,0.68
2018-12-22T18:56:44.273Z,0.61
2018-12-22T18:59:13.123Z,0.71
2018-12-22T19:01:41.735Z,0.69
2018-12-22T19:04:10.302Z,0.75
2018-12-22T19:06:39.234Z,0.79
2018-12-22T19:09:11.711Z,0.83
2018-12-22T19:11:40.336Z,0.76
2018-12-22T19:14:08.922Z,0.78
2018-12-22T19:16:37.545Z,0.67
2018-12-22T19:19:36.736Z,0.51
2018-12-22T19:22:05.406Z,0.53
2018-12-22T19:24:34.077Z,0.49
2018-12-22T19:27:02.728Z,0.41
2018-12-22T19:29:31.372Z,0.60
2018-12-22T19:31:59.914Z,0.59
2018-12-22T19:34:28.456Z,0.64
2018-12-22T19:36:57.065Z,0.77
2018-12-22T19:39:25.664Z,0.68
2018-12-22T19:41:54.288Z,0.81
2018-12-22T19:44:22.902Z,0.79
2018-12-22T19:46:51.690Z,0.96
2018-12-22T19:49:20.244Z,0.96
2018-12-22T19:51:48.862Z,1.04
2018-12-22T19:54:17.568Z,1.11
2018-12-22T19:56:46.163Z,1.10
2018-12-22T19:59:14.717Z,1.19
2018-12-22T20:01:43.304Z,1.18
2018-12-22T20:04:11.964Z,1.24
2018-12-22T20:06:40.805Z,0.77
2018-12-22T20:09:09.385Z,0.46
2018-12-22T20:11:38.148Z,0.38
2018-12-22T20:14:06.831Z,0.31
2018-12-22T20:16:35.471Z,0.66
2018-12-22T20:19:04.064Z,0.75
2018-12-22T20:21:32.636Z,0.92
2018-12-22T20:24:01.277Z,0.89
2018-12-22T20:26:30.239Z,0.60
2018-12-22T20:28:58.850Z,0.69
2018-12-22T20:31:28.176Z,0.85
2018-12-22T20:33:56.708Z,1.14
2018-12-22T20:36:25.389Z,1.24
2018-12-22T20:38:53.925Z,1.39
2018-12-22T20:41:22.525Z,1.56
2018-12-22T20:43:51.783Z,1.77
2018-12-22T20:46:20.429Z,1.82
2018-12-22T20:48:49.365Z,1.83
2018-12-22T20:51:17.985Z,1.87
2018-12-22T20:53:46.620Z,1.92
2018-12-22T20:56:15.241Z,1.89
2018-12-22T20:58:43.846Z,1.80
2018-12-22T21:01:12.399Z,1.78
2018-12-22T21:03:41.693Z,1.65
2018-12-22T21:06:18.571Z,1.56
2018-12-22T21:08:47.191Z,1.56
2018-12-22T21:11:15.823Z,1.55
2018-12-22T21:13:44.524Z,1.60
2018-12-22T21:16:13.135Z,1.63
2018-12-22T21:18:41.736Z,1.60
2018-12-22T21:21:10.324Z,1.58
2018-12-22T21:23:38.928Z,1.59
2018-12-22T21:26:07.567Z,1.60
2018-12-22T21:28:38.069Z,1.67
2018-12-22T21:31:06.783Z,1.59
2018-12-22T21:33:35.331Z,1.44
2018-12-22T21:36:03.973Z,1.67
2018-12-22T21:38:32.581Z,1.61
2018-12-22T21:41:01.224Z,1.74
2018-12-22T21:43:29.787Z,1.68
2018-12-22T21:45:58.353Z,1.78
2018-12-22T21:48:26.944Z,1.93
2018-12-22T21:50:55.520Z,1.90
2018-12-22T21:53:24.156Z,1.96
2018-12-22T21:55:52.671Z,2.11
2018-12-22T21:58:21.227Z,2.01
2018-12-22T22:00:49.814Z,1.82
2018-12-22T22:03:18.429Z,1.91
2018-12-22T22:05:47.093Z,1.78
2018-12-22T22:08:15.867Z,1.79
2018-12-22T22:10:44.518Z,1.83
2018-12-22T22:13:13.123Z,1.91
2018-12-22T22:15:41.777Z,1.94
2018-12-22T22:18:10.379Z,1.99
2018-12-22T22:20:38.981Z,2.11
2018-12-22T22:23:07.611Z,2.06
2018-12-22T22:25:36.555Z,2.02
2018-12-22T22:28:05.087Z,2.15
2018-12-22T22:30:33.678Z,2.20
2018-12-22T22:33:02.256Z,2.21
2018-12-22T22:35:30.837Z,2.28
2018-12-22T22:37:59.467Z,2.37
2018-12-22T22:40:28.105Z,2.42
2018-12-22T22:42:56.759Z,2.40
2018-12-22T22:45:25.375Z,2.40
2018-12-22T22:47:53.994Z,2.55
2018-12-22T22:50:22.511Z,2.57
2018-12-22T22:52:51.075Z,2.45
2018-12-22T22:55:19.611Z,2.41
2018-12-22T22:57:48.351Z,2.40
2018-12-22T23:00:27.275Z,2.23
2018-12-22T23:02:56.445Z,2.15
2018-12-22T23:05:24.997Z,2.32
2018-12-22T23:07:53.594Z,2.15
2018-12-22T23:10:22.390Z,2.19
2018-12-22T23:12:51.218Z,2.11
2018-12-22T23:15:19.819Z,2.10
2018-12-22T23:17:48.415Z,2.08
2018-12-22T23:20:16.966Z,1.93
2018-12-22T23:22:45.768Z,1.91
2018-12-22T23:25:14.398Z,1.69
2018-12-22T23:27:42.959Z,1.79
2018-12-22T23:30:11.604Z,1.78
2018-12-22T23:32:40.183Z,1.81
2018-12-22T23:35:08.740Z,1.90
2018-12-22T23:37:37.335Z,2.02
2018-12-22T23:40:06.059Z,2.15
2018-12-22T23:42:34.612Z,2.29
2018-12-22T23:45:03.247Z,2.37
2018-12-22T23:47:31.816Z,2.34
2018-12-22T23:50:00.397Z,2.40
2018-12-22T23:52:29.011Z,2.39
2018-12-22T23:54:57.592Z,2.54
2018-12-22T23:57:26.179Z,2.59
2018-12-22T23:59:54.749Z,2.50
